createdAt,value
2022-08-17T00:02:26.755Z,72.05
2022-08-17T00:04:55.412Z,71.88
2022-08-17T00:07:22.948Z,72.26
2022-08-17T00:09:50.252Z,72.38
2022-08-17T00:12:43.611Z,72.06
2022-08-17T00:15:05.871Z,72.16
2022-08-17T00:17:35.768Z,72.53
2022-08-17T00:20:04.381Z,73.09
2022-08-17T00:22:36.091Z,72.76
2022-08-17T00:25:07.613Z,73.15
2022-08-17T00:27:35.567Z,73.61
2022-08-17T00:30:04.064Z,73.89
2022-08-17T00:33:14.033Z,73.72
2022-08-17T00:35:27.596Z,74.28
2022-08-17T00:37:55.169Z,74.47
2022-08-17T00:40:22.487Z,74.24
2022-08-17T00:42:53.385Z,74.52
2022-08-17T00:45:22.011Z,74.29
2022-08-17T00:47:49.561Z,74.97
2022-08-17T00:50:18.755Z,74.72
2022-08-17T00:52:52.421Z,75.04
2022-08-17T00:55:19.956Z,75.56
2022-08-17T00:57:53.375Z,74.89
2022-08-17T01:00:28.277Z,75.64
2022-08-17T01:03:02.406Z,75.43
2022-08-17T01:05:31.811Z,75.80
2022-08-17T01:08:00.667Z,75.38
2022-08-17T01:10:58.657Z,75.58
2022-08-17T01:13:21.422Z,76.45
2022-08-17T01:16:11.653Z,75.87
2022-08-17T01:18:39.203Z,76.75
2022-08-17T01:21:11.443Z,77.03
2022-08-17T01:23:38.545Z,77.12
2022-08-17T01:26:06.303Z,77.32
2022-08-17T01:28:55.142Z,76.48
2022-08-17T01:31:22.905Z,76.68
2022-08-17T01:33:50.015Z,76.52
2022-08-17T01:36:17.123Z,76.54
2022-08-17T01:38:44.279Z,76.37
2022-08-17T01:41:14.656Z,76.62
2022-08-17T01:44:04.309Z,77.96
2022-08-17T01:46:35.191Z,77.27
2022-08-17T01:49:06.541Z,76.61
2022-08-17T01:51:33.879Z,77.24
2022-08-17T01:54:05.320Z,78.12
2022-08-17T01:56:34.408Z,77.67
2022-08-17T01:59:01.660Z,77.26
2022-08-17T02:01:30.753Z,77.57
2022-08-17T02:04:00.986Z,77.46
2022-08-17T02:06:45.063Z,77.22
2022-08-17T02:09:22.333Z,77.53
2022-08-17T02:11:54.066Z,77.91
2022-08-17T02:14:21.859Z,78.61
2022-08-17T02:16:49.163Z,78.61
2022-08-17T02:19:17.245Z,78.38
2022-08-17T02:21:46.636Z,78.83
2022-08-17T02:25:00.984Z,78.85
2022-08-17T02:27:06.824Z,79.38
2022-08-17T02:29:34.194Z,79.48
2022-08-17T02:32:01.816Z,80.01
2022-08-17T02:34:29.104Z,79.83
2022-08-17T02:36:56.203Z,79.98
2022-08-17T02:39:23.391Z,80.50
2022-08-17T02:41:50.514Z,80.37
2022-08-17T02:44:39.614Z,80.52
2022-08-17T02:47:04.847Z,80.70
2022-08-17T02:49:31.950Z,80.76
2022-08-17T02:51:59.241Z,80.54
2022-08-17T02:54:40.076Z,81.03
2022-08-17T02:57:10.346Z,81.47
2022-08-17T02:59:38.702Z,81.35
2022-08-17T03:02:11.079Z,81.35
2022-08-17T03:04:38.672Z,81.83
2022-08-17T03:07:06.622Z,81.66
2022-08-17T03:09:33.767Z,82.65
2022-08-17T03:12:09.057Z,83.12
2022-08-17T03:14:41.731Z,82.88
2022-08-17T03:17:16.934Z,82.91
2022-08-17T03:19:44.889Z,83.28
2022-08-17T03:22:35.342Z,83.49
2022-08-17T03:24:59.132Z,83.11
2022-08-17T03:27:26.565Z,83.12
2022-08-17T03:29:54.321Z,82.97
2022-08-17T03:32:21.505Z,83.07
2022-08-17T03:34:48.833Z,82.75
2022-08-17T03:37:15.948Z,82.61
2022-08-17T03:39:43.161Z,82.55
2022-08-17T03:42:14.335Z,83.30
2022-08-17T03:45:00.909Z,83.56
2022-08-17T03:47:46.972Z,83.63
2022-08-17T03:50:33.335Z,83.13
2022-08-17T03:53:21.071Z,83.11
2022-08-17T03:56:06.757Z,82.85
2022-08-17T03:58:33.847Z,83.33
2022-08-17T04:01:01.286Z,82.94
2022-08-17T04:03:28.664Z,83.05
2022-08-17T04:05:55.858Z,82.95
2022-08-17T04:08:22.972Z,82.63
2022-08-17T04:10:50.073Z,82.46
2022-08-17T04:13:24.257Z,82.58
2022-08-17T04:15:53.721Z,82.10
2022-08-17T04:18:20.823Z,82.07
2022-08-17T04:20:47.921Z,82.13
2022-08-17T04:23:17.160Z,81.60
2022-08-17T04:25:48.290Z,81.62
2022-08-17T04:28:16.623Z,81.57
2022-08-17T04:30:45.086Z,81.15
2022-08-17T04:33:15.576Z,80.85
2022-08-17T04:35:45.637Z,80.61
2022-08-17T04:38:15.685Z,80.28
2022-08-17T04:41:02.114Z,80.11
2022-08-17T04:43:31.093Z,80.42
2022-08-17T04:46:00.975Z,79.66
2022-08-17T04:48:36.456Z,79.53
2022-08-17T04:51:15.155Z,79.34
2022-08-17T04:53:44.551Z,78.59
2022-08-17T04:56:18.142Z,77.90
2022-08-17T04:58:49.906Z,77.82
2022-08-17T05:01:23.319Z,77.12
2022-08-17T05:03:53.626Z,76.83
2022-08-17T05:06:20.903Z,76.73
2022-08-17T05:08:47.970Z,75.82
2022-08-17T05:11:15.078Z,75.92
2022-08-17T05:13:42.258Z,75.18
2022-08-17T05:16:09.450Z,74.52
2022-08-17T05:18:38.697Z,74.16
2022-08-17T05:21:06.867Z,73.74
2022-08-17T05:23:41.969Z,73.36
2022-08-17T05:26:25.524Z,72.85
2022-08-17T05:29:00.447Z,72.34
2022-08-17T05:31:30.821Z,71.50
2022-08-17T05:33:58.401Z,71.62
2022-08-17T05:36:43.722Z,71.04
2022-08-17T05:39:16.356Z,70.85
2022-08-17T05:41:46.845Z,70.19
2022-08-17T05:44:14.046Z,69.63
2022-08-17T05:46:43.765Z,69.48
2022-08-17T05:49:11.460Z,68.95
2022-08-17T05:51:41.377Z,68.34
2022-08-17T05:54:27.749Z,67.95
2022-08-17T05:57:25.455Z,67.50
2022-08-17T05:59:59.061Z,67.32
2022-08-17T06:02:47.896Z,67.11
2022-08-17T06:05:27.379Z,66.40
2022-08-17T06:08:03.815Z,65.89
2022-08-17T06:10:48.382Z,65.33
2022-08-17T06:13:36.575Z,64.53
2022-08-17T06:16:33.050Z,63.76
2022-08-17T06:19:13.443Z,63.07
2022-08-17T06:21:44.655Z,62.26
2022-08-17T06:24:36.518Z,61.61
2022-08-17T06:27:27.475Z,61.17
2022-08-17T06:30:09.197Z,60.09
2022-08-17T06:32:43.675Z,59.17
2022-08-17T06:35:13.422Z,58.91
2022-08-17T06:37:59.436Z,58.44
2022-08-17T06:40:47.734Z,58.03
2022-08-17T06:43:24.379Z,57.40
2022-08-17T06:46:04.146Z,56.94
2022-08-17T06:48:49.661Z,56.10
2022-08-17T06:51:25.896Z,56.02
2022-08-17T06:54:22.791Z,55.71
2022-08-17T06:57:03.830Z,55.66
2022-08-17T06:59:56.226Z,55.12
2022-08-17T07:02:52.589Z,54.41
2022-08-17T07:05:34.133Z,54.15
2022-08-17T07:08:17.011Z,53.64
2022-08-17T07:10:51.134Z,52.96
2022-08-17T07:13:54.444Z,52.05
2022-08-17T07:16:36.368Z,52.13
2022-08-17T07:19:04.598Z,51.13
2022-08-17T07:21:42.037Z,49.84
2022-08-17T07:24:30.671Z,50.07
2022-08-17T07:27:13.016Z,49.38
2022-08-17T07:29:46.971Z,47.90
2022-08-17T07:32:18.653Z,48.73
2022-08-17T07:35:12.324Z,48.92
2022-08-17T07:37:56.106Z,48.92
2022-08-17T07:40:27.168Z,48.23
2022-08-17T07:43:22.298Z,47.90
2022-08-17T07:46:21.540Z,47.26
2022-08-17T07:48:54.746Z,46.92
2022-08-17T07:51:29.574Z,46.31
2022-08-17T07:54:19.754Z,46.40
2022-08-17T07:56:54.128Z,46.05
2022-08-17T07:59:24.372Z,45.60
2022-08-17T08:02:07.925Z,45.41
2022-08-17T08:04:59.836Z,44.84
2022-08-17T08:07:34.634Z,44.65
2022-08-17T08:10:04.868Z,43.50
2022-08-17T08:12:38.770Z,43.75
2022-08-17T08:15:25.655Z,42.49
2022-08-17T08:17:55.872Z,43.24
2022-08-17T08:20:53.347Z,43.17
2022-08-17T08:23:41.728Z,43.82
2022-08-17T08:26:36.085Z,43.18
2022-08-17T08:29:09.332Z,43.58
2022-08-17T08:32:03.896Z,42.18
2022-08-17T08:35:00.635Z,41.91
2022-08-17T08:37:49.422Z,41.12
2022-08-17T08:40:31.919Z,40.37
2022-08-17T08:43:22.581Z,39.97
2022-08-17T08:45:57.748Z,40.54
2022-08-17T08:48:56.244Z,40.23
2022-08-17T08:51:31.532Z,40.02
2022-08-17T08:54:12.485Z,39.74
2022-08-17T08:57:19.802Z,39.95
2022-08-17T08:59:41.809Z,39.52
2022-08-17T09:02:29.758Z,39.34
2022-08-17T09:05:14.347Z,39.27
2022-08-17T09:08:05.293Z,38.63
2022-08-17T09:11:02.416Z,37.35
2022-08-17T09:13:54.403Z,35.52
2022-08-17T09:16:34.976Z,35.66
2022-08-17T09:19:12.189Z,36.73
2022-08-17T09:22:01.058Z,36.04
2022-08-17T09:24:35.975Z,35.70
2022-08-17T09:27:46.319Z,35.41
2022-08-17T09:30:14.697Z,35.77
2022-08-17T09:32:46.071Z,34.90
2022-08-17T09:35:19.916Z,34.88
2022-08-17T09:37:52.721Z,33.81
2022-08-17T09:40:38.035Z,33.50
2022-08-17T09:43:24.783Z,33.50
2022-08-17T09:45:57.138Z,33.22
2022-08-17T09:48:41.963Z,32.68
2022-08-17T09:51:25.102Z,32.77
2022-08-17T09:53:52.226Z,31.82
2022-08-17T09:56:41.062Z,32.07
2022-08-17T09:59:38.504Z,31.88
2022-08-17T10:02:26.524Z,32.03
2022-08-17T10:05:21.865Z,31.95
2022-08-17T10:08:09.328Z,31.14
2022-08-17T10:10:56.232Z,30.92
2022-08-17T10:13:53.128Z,30.08
2022-08-17T10:16:38.211Z,30.37
2022-08-17T10:19:05.261Z,29.75
2022-08-17T10:22:00.966Z,29.98
2022-08-17T10:25:22.331Z,30.10
2022-08-17T10:27:55.430Z,28.89
2022-08-17T10:30:26.777Z,28.01
2022-08-17T10:33:01.425Z,28.61
2022-08-17T10:35:36.929Z,29.23
2022-08-17T10:38:37.774Z,29.58
2022-08-17T10:41:30.749Z,29.22
2022-08-17T10:44:38.307Z,27.28
2022-08-17T10:47:09.300Z,28.13
2022-08-17T10:49:54.021Z,28.55
2022-08-17T10:52:27.677Z,28.63
2022-08-17T10:54:56.718Z,28.33
2022-08-17T10:57:32.017Z,28.75
2022-08-17T11:00:15.846Z,28.43
2022-08-17T11:02:51.445Z,27.67
2022-08-17T11:05:18.717Z,29.13
2022-08-17T11:08:07.633Z,28.02
2022-08-17T11:11:12.996Z,28.32
2022-08-17T11:13:57.799Z,27.97
2022-08-17T11:16:50.730Z,28.26
2022-08-17T11:19:34.346Z,27.33
2022-08-17T11:22:19.681Z,27.22
2022-08-17T11:24:48.067Z,26.30
2022-08-17T11:27:30.119Z,26.90
2022-08-17T11:30:08.264Z,26.94
2022-08-17T11:32:54.418Z,26.92
2022-08-17T11:35:21.987Z,27.09
2022-08-17T11:38:16.374Z,27.15
2022-08-17T11:41:07.888Z,27.06
2022-08-17T11:44:26.399Z,26.29
2022-08-17T11:48:16.151Z,25.73
2022-08-17T11:51:07.341Z,25.29
2022-08-17T11:53:37.496Z,24.25
2022-08-17T11:56:04.625Z,24.63
2022-08-17T11:58:31.717Z,24.58
2022-08-17T12:01:00.765Z,24.17
2022-08-17T12:03:31.824Z,23.98
2022-08-17T12:06:20.353Z,23.82
2022-08-17T12:08:55.335Z,23.66
2022-08-17T12:11:55.159Z,24.09
2022-08-17T12:14:51.358Z,23.25
2022-08-17T12:17:39.635Z,23.19
2022-08-17T12:20:18.555Z,23.80
2022-08-17T12:23:01.098Z,22.34
2022-08-17T12:25:41.851Z,22.25
2022-08-17T12:28:34.160Z,22.40
2022-08-17T12:31:16.360Z,23.00
2022-08-17T12:33:45.462Z,22.56
2022-08-17T12:36:15.295Z,23.00
2022-08-17T12:38:59.493Z,22.69
2022-08-17T12:41:47.413Z,22.39
2022-08-17T12:44:21.405Z,22.11
2022-08-17T12:46:53.971Z,22.85
2022-08-17T12:49:42.250Z,22.39
2022-08-17T12:52:16.077Z,22.37
2022-08-17T12:54:59.588Z,22.31
2022-08-17T12:57:32.757Z,22.07
2022-08-17T13:00:17.678Z,21.84
2022-08-17T13:02:49.216Z,21.88
2022-08-17T13:05:48.535Z,20.90
2022-08-17T13:08:19.099Z,20.96
2022-08-17T13:11:09.306Z,20.17
2022-08-17T13:13:39.435Z,20.43
2022-08-17T13:16:12.531Z,19.94
2022-08-17T13:18:53.025Z,19.91
2022-08-17T13:21:30.436Z,19.65
2022-08-17T13:24:03.822Z,20.09
2022-08-17T13:26:43.176Z,19.35
2022-08-17T13:29:26.321Z,19.94
2022-08-17T13:32:02.744Z,19.42
2022-08-17T13:38:51.095Z,20.57
2022-08-17T13:41:34.532Z,20.76
2022-08-17T13:44:02.175Z,21.28
2022-08-17T13:46:32.226Z,20.01
2022-08-17T13:49:00.873Z,19.21
2022-08-17T13:51:42.316Z,19.68
2022-08-17T13:54:30.055Z,19.91
2022-08-17T13:57:00.860Z,20.52
2022-08-17T13:59:48.218Z,21.17
2022-08-17T14:02:20.761Z,21.64
2022-08-17T14:04:48.123Z,21.09
2022-08-17T14:07:16.008Z,21.53
2022-08-17T14:09:57.744Z,22.26
2022-08-17T14:12:27.613Z,22.55
2022-08-17T14:14:56.379Z,20.70
2022-08-17T14:17:24.799Z,19.52
2022-08-17T14:19:52.429Z,18.24
2022-08-17T14:22:26.978Z,18.79
2022-08-17T14:24:54.145Z,18.80
2022-08-17T14:27:21.904Z,19.58
2022-08-17T14:29:49.370Z,19.91
2022-08-17T14:32:18.496Z,20.10
2022-08-17T14:34:46.575Z,20.09
2022-08-17T14:37:13.743Z,19.65
2022-08-17T14:39:40.997Z,17.94
2022-08-17T14:42:11.463Z,17.38
2022-08-17T14:44:39.453Z,15.38
2022-08-17T14:47:07.748Z,15.65
2022-08-17T14:49:34.857Z,15.45
2022-08-17T14:52:02.161Z,16.24
2022-08-17T14:54:33.869Z,17.15
2022-08-17T14:57:22.220Z,18.23
2022-08-17T14:59:53.204Z,19.05
2022-08-17T15:02:30.189Z,20.46
2022-08-17T15:05:03.394Z,21.02
2022-08-17T15:07:31.400Z,21.12
2022-08-17T15:10:01.512Z,21.46
2022-08-17T15:12:33.211Z,21.44
2022-08-17T15:15:06.195Z,20.99
2022-08-17T15:17:45.098Z,21.64
2022-08-17T15:20:16.324Z,21.77
2022-08-17T15:22:44.921Z,21.72
2022-08-17T15:25:13.098Z,22.07
2022-08-17T15:27:40.466Z,22.39
2022-08-17T15:30:09.399Z,22.81
2022-08-17T15:32:38.329Z,22.46
2022-08-17T15:35:07.810Z,24.01
2022-08-17T15:37:36.337Z,22.47
2022-08-17T15:40:05.414Z,22.40
2022-08-17T15:42:32.903Z,22.55
2022-08-17T15:45:06.024Z,23.07
2022-08-17T15:47:33.145Z,22.87
2022-08-17T15:50:00.641Z,23.27
2022-08-17T15:52:30.024Z,20.70
2022-08-17T15:54:59.374Z,17.78
2022-08-17T15:57:27.343Z,16.77
2022-08-17T15:59:58.712Z,15.20
2022-08-17T16:03:44.680Z,13.72
2022-08-17T16:05:22.300Z,12.27
2022-08-17T16:07:52.599Z,11.36
2022-08-17T16:10:20.949Z,13.09
2022-08-17T16:12:49.883Z,13.86
2022-08-17T16:15:17.942Z,13.24
2022-08-17T16:17:45.071Z,12.03
2022-08-17T16:20:20.421Z,13.10
2022-08-17T16:22:50.123Z,13.67
2022-08-17T16:25:47.184Z,15.91
2022-08-17T16:28:12.377Z,16.27
2022-08-17T16:30:39.800Z,17.07
2022-08-17T16:33:07.027Z,17.94
2022-08-17T16:35:34.160Z,18.54
2022-08-17T16:38:02.658Z,20.09
2022-08-17T16:40:31.232Z,20.54
2022-08-17T16:43:03.563Z,20.61
2022-08-17T16:45:36.366Z,21.64
2022-08-17T16:48:04.381Z,22.07
2022-08-17T16:50:32.270Z,22.29
2022-08-17T16:53:08.209Z,22.90
2022-08-17T16:55:35.722Z,23.46
2022-08-17T16:58:06.303Z,23.73
2022-08-17T17:00:33.754Z,24.85
2022-08-17T17:03:30.609Z,25.48
2022-08-17T17:06:08.014Z,25.62
2022-08-17T17:08:40.680Z,25.46
2022-08-17T17:11:21.386Z,26.47
2022-08-17T17:13:58.490Z,26.48
2022-08-17T17:16:28.741Z,26.97
2022-08-17T17:19:15.189Z,27.41
2022-08-17T17:21:53.233Z,27.56
2022-08-17T17:24:28.912Z,27.89
2022-08-17T17:27:19.519Z,28.84
2022-08-17T17:29:55.167Z,29.67
2022-08-17T17:32:38.532Z,29.04
2022-08-17T17:35:12.080Z,30.16
2022-08-17T17:37:40.188Z,30.13
2022-08-17T17:40:13.939Z,30.85
2022-08-17T17:42:42.206Z,30.58
2022-08-17T17:45:16.838Z,30.39
2022-08-17T17:47:44.563Z,33.47
2022-08-17T17:50:12.332Z,33.43
2022-08-17T17:52:52.466Z,33.11
2022-08-17T17:55:44.753Z,33.90
2022-08-17T17:58:32.062Z,32.98
2022-08-17T18:01:10.179Z,32.68
2022-08-17T18:04:11.204Z,33.88
2022-08-17T18:06:58.057Z,33.22
2022-08-17T18:10:01.652Z,34.04
2022-08-17T18:12:44.054Z,34.04
2022-08-17T18:15:25.522Z,33.95
2022-08-17T18:18:16.012Z,34.38
2022-08-17T18:20:55.790Z,36.25
2022-08-17T18:23:27.924Z,35.44
2022-08-17T18:25:56.602Z,34.73
2022-08-17T18:28:27.344Z,35.31
2022-08-17T18:31:06.781Z,37.29
2022-08-17T18:33:39.170Z,37.32
2022-08-17T18:37:16.013Z,37.69
2022-08-17T18:39:46.651Z,38.52
2022-08-17T18:42:28.834Z,38.29
2022-08-17T18:44:56.428Z,40.08
2022-08-17T18:47:28.283Z,40.09
2022-08-17T18:49:58.323Z,38.40
2022-08-17T18:52:33.788Z,38.73
2022-08-17T18:55:20.437Z,39.23
2022-08-17T18:57:55.171Z,39.28
2022-08-17T19:00:43.883Z,39.14
2022-08-17T19:03:20.194Z,38.75
2022-08-17T19:05:55.838Z,38.69
2022-08-17T19:08:29.084Z,39.18
2022-08-17T19:10:58.848Z,39.83
2022-08-17T19:13:32.416Z,39.50
2022-08-17T19:16:13.908Z,40.59
2022-08-17T19:19:04.707Z,40.09
2022-08-17T19:21:39.218Z,39.92
2022-08-17T19:24:21.905Z,40.11
2022-08-17T19:26:56.948Z,40.61
2022-08-17T19:29:36.901Z,40.25
2022-08-17T19:32:04.569Z,40.41
2022-08-17T19:34:34.568Z,40.35
2022-08-17T19:37:26.495Z,41.08
2022-08-17T19:40:51.008Z,41.19
2022-08-17T19:43:19.564Z,41.09
2022-08-17T19:46:13.294Z,41.51
2022-08-17T19:48:56.029Z,41.39
2022-08-17T19:51:58.760Z,42.01
2022-08-17T19:54:47.878Z,42.71
2022-08-17T19:57:20.399Z,42.88
2022-08-17T20:00:13.359Z,42.97
2022-08-17T20:02:46.496Z,43.14
2022-08-17T20:05:25.096Z,43.64
2022-08-17T20:08:04.052Z,43.28
2022-08-17T20:11:09.620Z,43.83
2022-08-17T20:13:41.882Z,43.62
2022-08-17T20:16:10.099Z,43.95
2022-08-17T20:18:52.388Z,43.67
2022-08-17T20:21:26.225Z,43.59
2022-08-17T20:24:01.829Z,43.81
2022-08-17T20:26:51.247Z,44.17
2022-08-17T20:29:39.856Z,44.35
2022-08-17T20:32:17.222Z,44.71
2022-08-17T20:34:46.121Z,44.85
2022-08-17T20:37:13.363Z,44.60
2022-08-17T20:39:46.265Z,45.31
2022-08-17T20:42:22.540Z,45.45
2022-08-17T20:44:52.709Z,45.07
2022-08-17T20:48:15.104Z,45.36
2022-08-17T20:50:37.880Z,45.40
2022-08-17T20:53:08.583Z,45.62
2022-08-17T20:55:35.809Z,45.16
2022-08-17T20:58:29.847Z,45.87
2022-08-17T21:00:59.130Z,46.33
2022-08-17T21:03:47.593Z,46.28
2022-08-17T21:06:18.903Z,46.53
2022-08-17T21:09:29.690Z,46.86
2022-08-17T21:12:04.289Z,47.39
2022-08-17T21:14:58.102Z,47.70
2022-08-17T21:17:34.238Z,48.00
2022-08-17T21:20:11.954Z,48.21
2022-08-17T21:22:51.462Z,48.71
2022-08-17T21:25:42.295Z,49.25
2022-08-17T21:28:15.473Z,49.61
2022-08-17T21:30:52.712Z,49.50
2022-08-17T21:33:25.179Z,49.74
2022-08-17T21:35:58.641Z,50.07
2022-08-17T21:38:37.612Z,50.60
2022-08-17T21:41:04.951Z,50.87
2022-08-17T21:43:35.295Z,51.48
2022-08-17T21:46:05.761Z,51.56
2022-08-17T21:48:42.296Z,51.43
2022-08-17T21:51:12.810Z,52.17
2022-08-17T21:53:42.847Z,51.76
2022-08-17T21:56:12.274Z,52.31
2022-08-17T21:58:45.396Z,52.43
2022-08-17T22:01:31.157Z,52.60
2022-08-17T22:03:59.638Z,52.92
2022-08-17T22:06:39.671Z,53.13
2022-08-17T22:09:14.648Z,52.88
2022-08-17T22:11:59.154Z,53.34
2022-08-17T22:14:52.847Z,54.13
2022-08-17T22:17:36.416Z,53.58
2022-08-17T22:20:14.697Z,53.67
2022-08-17T22:23:12.645Z,53.52
2022-08-17T22:25:56.619Z,54.05
2022-08-17T22:28:49.099Z,54.21
2022-08-17T22:31:24.981Z,54.23
2022-08-17T22:33:59.775Z,54.12
2022-08-17T22:36:29.974Z,54.41
2022-08-17T22:39:04.072Z,54.50
2022-08-17T22:41:50.474Z,54.54
2022-08-17T22:44:37.539Z,54.66
2022-08-17T22:47:21.282Z,55.26
2022-08-17T22:49:53.880Z,55.49
2022-08-17T22:53:00.836Z,55.39
2022-08-17T22:55:47.050Z,56.06
2022-08-17T22:58:36.908Z,56.00
2022-08-17T23:01:28.785Z,56.37
2022-08-17T23:04:01.759Z,55.99
2022-08-17T23:06:30.166Z,56.41
2022-08-17T23:08:58.106Z,56.84
2022-08-17T23:11:36.712Z,56.74
2022-08-17T23:14:15.919Z,56.94
2022-08-17T23:16:43.123Z,57.60
2022-08-17T23:19:11.525Z,57.26
2022-08-17T23:21:38.853Z,57.62
2022-08-17T23:24:08.830Z,58.46
2022-08-17T23:26:38.093Z,58.09
2022-08-17T23:29:06.702Z,57.99
2022-08-17T23:31:34.783Z,58.76
2022-08-17T23:34:03.331Z,58.58
2022-08-17T23:36:31.855Z,58.84
2022-08-17T23:38:59.080Z,58.46
2022-08-17T23:41:28.006Z,58.76
2022-08-17T23:43:55.381Z,58.73
2022-08-17T23:46:25.003Z,58.47
2022-08-17T23:48:53.498Z,59.00
2022-08-17T23:51:24.247Z,58.96
2022-08-17T23:53:56.099Z,59.03
2022-08-17T23:56:26.148Z,59.44
2022-08-17T23:58:55.081Z,59.16
